createdAt,value
2023-05-17T00:02:06.425Z,25.36
2023-05-17T00:04:33.846Z,25.31
2023-05-17T00:07:00.640Z,25.34
2023-05-17T00:09:27.305Z,25.33
2023-05-17T00:11:53.866Z,25.29
2023-05-17T00:14:20.497Z,25.33
2023-05-17T00:16:47.099Z,25.35
2023-05-17T00:19:13.945Z,25.35
2023-05-17T00:21:40.686Z,25.31
2023-05-17T00:24:07.352Z,25.26
2023-05-17T00:26:34.015Z,25.30
2023-05-17T00:29:00.861Z,25.27
2023-05-17T00:31:27.618Z,25.28
2023-05-17T00:33:54.201Z,25.29
2023-05-17T00:36:20.990Z,25.26
2023-05-17T00:38:47.559Z,25.25
2023-05-17T00:41:14.170Z,25.28
2023-05-17T00:43:40.933Z,25.25
2023-05-17T00:46:07.951Z,25.28
2023-05-17T00:48:35.440Z,25.26
2023-05-17T00:51:02.245Z,25.26
2023-05-17T00:53:29.586Z,25.26
2023-05-17T00:55:56.263Z,25.26
2023-05-17T00:58:23.160Z,25.26
2023-05-17T01:00:50.977Z,25.23
2023-05-17T01:03:17.732Z,25.24
2023-05-17T01:05:44.582Z,25.26
2023-05-17T01:08:11.350Z,25.25
2023-05-17T01:11:01.335Z,25.25
2023-05-17T01:13:40.654Z,25.18
2023-05-17T01:16:18.028Z,25.23
2023-05-17T01:19:03.598Z,25.25
2023-05-17T01:22:09.811Z,25.23
2023-05-17T01:24:39.338Z,25.20
2023-05-17T01:27:05.995Z,25.24
2023-05-17T01:29:32.566Z,25.22
2023-05-17T01:31:59.196Z,25.19
2023-05-17T01:34:29.360Z,25.19
2023-05-17T01:36:57.512Z,25.17
2023-05-17T01:39:24.177Z,25.20
2023-05-17T01:42:12.372Z,25.22
2023-05-17T01:44:51.534Z,25.23
2023-05-17T01:47:30.883Z,25.16
2023-05-17T01:49:57.603Z,25.19
2023-05-17T01:52:51.379Z,25.25
2023-05-17T01:55:45.578Z,25.22
2023-05-17T01:58:12.823Z,25.17
2023-05-17T02:00:40.260Z,25.13
2023-05-17T02:03:06.972Z,25.13
2023-05-17T02:05:33.662Z,25.13
2023-05-17T02:08:00.312Z,25.12
2023-05-17T02:10:26.930Z,25.16
2023-05-17T02:12:53.531Z,25.17
2023-05-17T02:15:20.238Z,25.19
2023-05-17T02:17:46.938Z,25.08
2023-05-17T02:20:15.055Z,25.13
2023-05-17T02:22:41.687Z,25.10
2023-05-17T02:25:08.734Z,25.08
2023-05-17T02:27:35.632Z,25.09
2023-05-17T02:30:02.478Z,25.08
2023-05-17T02:32:29.190Z,25.08
2023-05-17T02:34:56.182Z,25.06
2023-05-17T02:37:23.291Z,25.10
2023-05-17T02:39:49.938Z,25.11
2023-05-17T02:42:16.592Z,25.11
2023-05-17T02:44:43.297Z,25.12
2023-05-17T02:47:09.965Z,25.10
2023-05-17T02:49:36.714Z,25.10
2023-05-17T02:52:03.650Z,25.08
2023-05-17T02:54:30.445Z,25.03
2023-05-17T02:56:57.463Z,25.10
2023-05-17T02:59:24.142Z,25.08
2023-05-17T03:01:51.077Z,25.01
2023-05-17T03:04:20.269Z,25.09
2023-05-17T03:06:47.303Z,25.07
2023-05-17T03:09:14.247Z,25.12
2023-05-17T03:11:41.537Z,25.11
2023-05-17T03:14:16.533Z,25.13
2023-05-17T03:16:43.264Z,25.10
2023-05-17T03:19:10.047Z,25.13
2023-05-17T03:21:38.389Z,25.11
2023-05-17T03:24:06.105Z,25.14
2023-05-17T03:26:33.490Z,25.12
2023-05-17T03:29:00.244Z,25.12
2023-05-17T03:31:27.160Z,25.13
2023-05-17T03:33:54.053Z,25.10
2023-05-17T03:36:21.196Z,25.10
2023-05-17T03:38:47.845Z,25.07
2023-05-17T03:41:14.698Z,25.12
2023-05-17T03:43:41.961Z,25.11
2023-05-17T03:46:11.666Z,25.11
2023-05-17T03:48:38.408Z,25.13
2023-05-17T03:51:05.316Z,25.10
2023-05-17T03:53:33.111Z,25.11
2023-05-17T03:56:00.652Z,25.08
2023-05-17T03:58:27.384Z,25.11
2023-05-17T04:00:54.130Z,25.03
2023-05-17T04:03:20.914Z,25.12
2023-05-17T04:05:48.020Z,25.14
2023-05-17T04:08:14.717Z,25.14
2023-05-17T04:10:42.289Z,25.13
2023-05-17T04:13:12.352Z,25.10
2023-05-17T04:15:39.142Z,25.13
2023-05-17T04:18:07.404Z,25.10
2023-05-17T04:20:34.042Z,25.10
2023-05-17T04:23:01.662Z,25.11
2023-05-17T04:25:31.037Z,25.11
2023-05-17T04:27:58.061Z,25.05
2023-05-17T04:30:24.970Z,25.13
2023-05-17T04:32:53.866Z,25.11
2023-05-17T04:35:20.758Z,25.09
2023-05-17T04:37:50.853Z,25.10
2023-05-17T04:40:21.286Z,25.16
2023-05-17T04:42:48.912Z,25.16
2023-05-17T04:45:17.701Z,25.12
2023-05-17T04:47:44.558Z,25.16
2023-05-17T04:50:12.395Z,25.17
2023-05-17T04:52:39.157Z,25.17
2023-05-17T04:55:06.454Z,25.16
2023-05-17T04:57:33.055Z,25.14
2023-05-17T05:00:07.084Z,25.20
2023-05-17T05:02:34.463Z,25.20
2023-05-17T05:05:06.797Z,25.18
2023-05-17T05:07:33.670Z,25.16
2023-05-17T05:10:04.109Z,25.11
2023-05-17T05:12:30.769Z,25.17
2023-05-17T05:14:59.544Z,25.17
2023-05-17T05:17:27.708Z,25.10
2023-05-17T05:19:54.599Z,25.08
2023-05-17T05:22:24.809Z,25.11
2023-05-17T05:24:51.570Z,25.07
2023-05-17T05:27:18.716Z,25.04
2023-05-17T05:29:46.092Z,25.09
2023-05-17T05:32:13.098Z,25.09
2023-05-17T05:34:45.297Z,25.05
2023-05-17T05:37:11.908Z,25.03
2023-05-17T05:39:38.589Z,24.98
2023-05-17T05:42:05.529Z,24.98
2023-05-17T05:44:32.181Z,24.94
2023-05-17T05:47:00.001Z,24.96
2023-05-17T05:49:26.634Z,24.98
2023-05-17T05:51:53.866Z,24.97
2023-05-17T05:54:20.918Z,25.03
2023-05-17T05:56:47.767Z,25.04
2023-05-17T05:59:16.290Z,25.03
2023-05-17T06:01:43.740Z,25.03
2023-05-17T06:04:10.424Z,25.05
2023-05-17T06:06:37.318Z,25.02
2023-05-17T06:09:05.886Z,25.03
2023-05-17T06:11:32.493Z,25.03
2023-05-17T06:13:59.112Z,25.06
2023-05-17T06:16:25.882Z,25.09
2023-05-17T06:18:52.592Z,25.04
2023-05-17T06:21:19.288Z,25.13
2023-05-17T06:23:46.263Z,25.16
2023-05-17T06:26:12.924Z,25.15
2023-05-17T06:28:39.582Z,25.18
2023-05-17T06:31:06.266Z,25.22
2023-05-17T06:33:32.973Z,25.19
2023-05-17T06:38:27.364Z,25.19
2023-05-17T06:40:54.917Z,25.23
2023-05-17T06:43:21.758Z,25.23
2023-05-17T06:45:48.388Z,25.25
2023-05-17T06:48:15.564Z,25.23
2023-05-17T06:50:42.336Z,25.24
2023-05-17T06:53:09.053Z,25.28
2023-05-17T06:55:35.704Z,25.20
2023-05-17T06:58:02.532Z,25.26
2023-05-17T07:00:32.478Z,25.22
2023-05-17T07:03:02.324Z,25.26
2023-05-17T07:05:30.837Z,25.27
2023-05-17T07:07:58.850Z,25.35
2023-05-17T07:10:25.541Z,25.38
2023-05-17T07:12:52.508Z,25.35
2023-05-17T07:15:19.291Z,25.41
2023-05-17T07:17:45.971Z,25.40
2023-05-17T07:20:13.098Z,25.38
2023-05-17T07:22:40.025Z,25.32
2023-05-17T07:25:07.665Z,25.31
2023-05-17T07:27:34.397Z,25.34
2023-05-17T07:30:01.703Z,25.32
2023-05-17T07:32:28.449Z,25.36
2023-05-17T07:34:55.341Z,25.36
2023-05-17T07:37:21.941Z,25.35
2023-05-17T07:39:48.553Z,25.34
2023-05-17T07:42:17.272Z,25.32
2023-05-17T07:44:48.693Z,25.29
2023-05-17T07:47:18.005Z,25.27
2023-05-17T07:49:44.703Z,25.24
2023-05-17T07:52:11.311Z,25.14
2023-05-17T07:54:37.967Z,25.18
2023-05-17T07:57:04.677Z,25.13
2023-05-17T07:59:31.368Z,25.30
2023-05-17T08:01:58.065Z,25.33
2023-05-17T08:04:24.764Z,25.31
2023-05-17T08:06:51.497Z,25.32
2023-05-17T08:09:18.462Z,25.31
2023-05-17T08:11:47.958Z,25.34
2023-05-17T08:14:17.793Z,25.35
2023-05-17T08:16:45.754Z,25.35
2023-05-17T08:19:16.687Z,25.31
2023-05-17T08:21:43.821Z,25.39
2023-05-17T08:24:10.527Z,25.42
2023-05-17T08:26:37.634Z,25.40
2023-05-17T08:29:07.508Z,25.40
2023-05-17T08:31:34.360Z,25.37
2023-05-17T08:34:01.173Z,25.34
2023-05-17T08:36:28.499Z,25.34
2023-05-17T08:38:55.503Z,25.20
2023-05-17T08:41:22.284Z,25.32
2023-05-17T08:43:49.210Z,25.34
2023-05-17T08:46:16.329Z,25.32
2023-05-17T08:48:43.210Z,25.31
2023-05-17T08:51:12.885Z,25.38
2023-05-17T08:53:39.546Z,25.40
2023-05-17T08:56:07.064Z,25.40
2023-05-17T08:58:44.752Z,25.42
2023-05-17T09:01:23.590Z,25.41
2023-05-17T09:03:52.237Z,25.37
2023-05-17T09:06:22.711Z,25.43
2023-05-17T09:08:53.417Z,25.45
2023-05-17T09:11:29.943Z,25.43
2023-05-17T09:14:00.855Z,25.44
2023-05-17T09:16:31.386Z,25.45
2023-05-17T09:18:58.270Z,25.44
2023-05-17T09:21:25.555Z,25.45
2023-05-17T09:24:04.710Z,25.45
2023-05-17T09:26:43.064Z,25.46
2023-05-17T09:29:10.945Z,25.45
2023-05-17T09:31:37.771Z,25.44
2023-05-17T09:34:05.397Z,25.47
2023-05-17T09:36:32.245Z,25.45
2023-05-17T09:39:05.762Z,25.49
2023-05-17T09:41:33.278Z,25.44
2023-05-17T09:44:01.092Z,25.44
2023-05-17T09:46:28.659Z,25.47
2023-05-17T09:48:56.459Z,25.49
2023-05-17T09:51:36.674Z,25.51
2023-05-17T09:54:03.435Z,25.51
2023-05-17T09:56:30.652Z,25.51
2023-05-17T09:58:59.013Z,25.40
2023-05-17T10:01:29.335Z,25.44
2023-05-17T10:03:56.607Z,25.51
2023-05-17T10:06:38.242Z,25.51
2023-05-17T10:09:10.856Z,25.54
2023-05-17T10:11:37.756Z,25.50
2023-05-17T10:14:32.008Z,25.50
2023-05-17T10:16:58.840Z,25.52
2023-05-17T10:19:25.825Z,25.51
2023-05-17T10:21:53.172Z,25.48
2023-05-17T10:24:20.625Z,25.53
2023-05-17T10:26:49.608Z,25.52
2023-05-17T10:29:16.277Z,25.56
2023-05-17T10:31:43.143Z,25.54
2023-05-17T10:34:09.829Z,25.57
2023-05-17T10:36:36.497Z,25.55
2023-05-17T10:39:03.377Z,25.47
2023-05-17T10:41:32.417Z,25.56
2023-05-17T10:43:59.035Z,25.51
2023-05-17T10:46:25.782Z,25.57
2023-05-17T10:48:53.053Z,25.59
2023-05-17T10:51:33.337Z,25.62
2023-05-17T10:54:03.027Z,25.64
2023-05-17T10:56:32.960Z,25.62
2023-05-17T10:59:19.660Z,25.64
2023-05-17T11:02:23.044Z,25.68
2023-05-17T11:04:53.004Z,25.67
2023-05-17T11:07:28.043Z,25.61
2023-05-17T11:09:56.422Z,25.63
2023-05-17T11:12:35.955Z,25.65
2023-05-17T11:15:14.207Z,25.71
2023-05-17T11:17:44.205Z,25.63
2023-05-17T11:20:31.469Z,25.54
2023-05-17T11:23:06.025Z,25.42
2023-05-17T11:25:35.542Z,25.37
2023-05-17T11:28:22.117Z,25.23
2023-05-17T11:30:53.641Z,25.21
2023-05-17T11:33:32.880Z,25.20
2023-05-17T11:36:05.216Z,25.21
2023-05-17T11:38:32.879Z,25.24
2023-05-17T11:41:01.214Z,25.31
2023-05-17T11:43:30.939Z,25.32
2023-05-17T11:45:58.587Z,25.35
2023-05-17T11:48:26.639Z,25.35
2023-05-17T11:50:54.585Z,25.30
2023-05-17T11:53:21.604Z,25.43
2023-05-17T11:55:50.425Z,25.42
2023-05-17T11:58:19.016Z,25.42
2023-05-17T12:00:45.829Z,25.49
2023-05-17T12:03:23.272Z,25.52
2023-05-17T12:05:51.090Z,25.50
2023-05-17T12:08:18.593Z,25.50
2023-05-17T12:10:52.183Z,25.52
2023-05-17T12:13:22.099Z,25.53
2023-05-17T12:15:56.900Z,25.54
2023-05-17T12:18:24.647Z,25.51
2023-05-17T12:20:57.730Z,25.53
2023-05-17T12:23:37.492Z,25.65
2023-05-17T12:26:15.235Z,25.68
2023-05-17T12:28:44.086Z,25.61
2023-05-17T12:31:16.494Z,25.66
2023-05-17T12:33:43.824Z,25.63
2023-05-17T12:36:11.712Z,25.68
2023-05-17T12:38:40.623Z,25.64
2023-05-17T12:41:08.636Z,25.74
2023-05-17T12:43:36.127Z,25.74
2023-05-17T12:46:06.676Z,25.79
2023-05-17T12:48:42.508Z,25.85
2023-05-17T12:51:13.980Z,25.85
2023-05-17T12:53:44.933Z,25.82
2023-05-17T12:56:16.316Z,25.88
2023-05-17T12:58:43.057Z,25.89
2023-05-17T13:01:14.387Z,25.88
2023-05-17T13:03:44.319Z,25.94
2023-05-17T13:06:11.228Z,25.94
2023-05-17T13:08:37.974Z,25.97
2023-05-17T13:11:11.828Z,25.98
2023-05-17T13:13:38.556Z,25.92
2023-05-17T13:16:05.872Z,25.92
2023-05-17T13:18:47.411Z,25.89
2023-05-17T13:21:14.222Z,25.97
2023-05-17T13:23:45.010Z,26.02
2023-05-17T13:26:13.048Z,26.03
2023-05-17T13:28:41.683Z,26.04
2023-05-17T13:31:08.889Z,26.01
2023-05-17T13:33:36.186Z,26.04
2023-05-17T13:36:03.114Z,26.07
2023-05-17T13:38:33.358Z,26.05
2023-05-17T13:41:00.789Z,26.03
2023-05-17T13:43:27.472Z,26.03
2023-05-17T13:45:58.762Z,26.03
2023-05-17T13:48:25.656Z,26.04
2023-05-17T13:50:53.052Z,26.08
2023-05-17T13:53:19.895Z,26.08
2023-05-17T13:55:46.725Z,26.08
2023-05-17T13:58:14.077Z,26.10
2023-05-17T14:00:43.869Z,26.10
2023-05-17T14:03:11.924Z,26.11
2023-05-17T14:05:39.495Z,26.10
2023-05-17T14:08:07.489Z,26.07
2023-05-17T14:10:34.378Z,26.14
2023-05-17T14:13:01.081Z,26.13
2023-05-17T14:15:28.151Z,26.17
2023-05-17T14:17:54.957Z,26.18
2023-05-17T14:20:21.901Z,26.13
2023-05-17T14:22:48.589Z,26.14
2023-05-17T14:25:15.461Z,26.10
2023-05-17T14:27:42.614Z,26.09
2023-05-17T14:30:11.047Z,26.09
2023-05-17T14:32:39.746Z,26.04
2023-05-17T14:35:07.826Z,26.09
2023-05-17T14:37:34.634Z,26.09
2023-05-17T14:42:31.741Z,26.07
2023-05-17T14:44:58.452Z,26.02
2023-05-17T14:47:25.200Z,26.02
2023-05-17T14:49:52.036Z,26.06
2023-05-17T14:52:18.925Z,26.07
2023-05-17T14:54:45.691Z,26.05
2023-05-17T14:57:12.683Z,26.02
2023-05-17T14:59:39.398Z,26.02
2023-05-17T15:02:06.104Z,25.98
2023-05-17T15:04:33.013Z,25.96
2023-05-17T15:06:59.733Z,25.94
2023-05-17T15:09:26.540Z,25.95
2023-05-17T15:11:54.546Z,25.99
2023-05-17T15:14:24.920Z,26.05
2023-05-17T15:16:52.318Z,26.07
2023-05-17T15:19:19.143Z,26.12
2023-05-17T15:21:45.892Z,26.14
2023-05-17T15:24:13.909Z,26.13
2023-05-17T15:26:41.858Z,26.16
2023-05-17T15:29:08.533Z,26.19
2023-05-17T15:31:35.208Z,26.21
2023-05-17T15:34:02.103Z,26.21
2023-05-17T15:36:28.806Z,26.17
2023-05-17T15:38:55.517Z,26.21
2023-05-17T15:41:29.120Z,26.22
2023-05-17T15:43:56.739Z,26.24
2023-05-17T15:46:23.411Z,26.13
2023-05-17T15:48:50.143Z,26.26
2023-05-17T15:51:16.846Z,26.29
2023-05-17T15:53:43.580Z,26.27
2023-05-17T15:56:11.233Z,26.25
2023-05-17T15:58:37.965Z,26.19
2023-05-17T16:01:05.690Z,26.23
2023-05-17T16:03:33.039Z,26.21
2023-05-17T16:05:59.841Z,26.25
2023-05-17T16:08:26.555Z,26.29
2023-05-17T16:10:53.317Z,26.26
2023-05-17T16:13:19.978Z,26.26
2023-05-17T16:15:46.652Z,26.26
2023-05-17T16:18:15.153Z,26.25
2023-05-17T16:20:42.393Z,26.24
2023-05-17T16:23:09.483Z,26.23
2023-05-17T16:25:36.615Z,26.22
2023-05-17T16:28:03.313Z,26.26
2023-05-17T16:30:29.961Z,26.25
2023-05-17T16:32:56.785Z,26.28
2023-05-17T16:35:23.587Z,26.27
2023-05-17T16:37:50.362Z,26.17
2023-05-17T16:40:17.021Z,26.27
2023-05-17T16:42:44.540Z,26.24
2023-05-17T16:45:11.359Z,26.17
2023-05-17T16:47:38.122Z,26.13
2023-05-17T16:50:05.848Z,26.16
2023-05-17T16:52:32.578Z,26.19
2023-05-17T16:55:03.366Z,26.16
2023-05-17T16:57:31.576Z,26.10
2023-05-17T17:00:00.405Z,26.13
2023-05-17T17:02:27.714Z,26.13
2023-05-17T17:04:54.635Z,26.07
2023-05-17T17:07:22.052Z,26.11
2023-05-17T17:09:49.079Z,26.10
2023-05-17T17:12:24.106Z,26.01
2023-05-17T17:14:52.082Z,26.08
2023-05-17T17:17:18.914Z,26.09
2023-05-17T17:19:45.573Z,26.07
2023-05-17T17:22:14.507Z,26.08
2023-05-17T17:24:41.185Z,26.02
2023-05-17T17:27:08.270Z,26.00
2023-05-17T17:29:35.330Z,25.88
2023-05-17T17:32:02.368Z,25.94
2023-05-17T17:34:29.137Z,25.92
2023-05-17T17:36:55.735Z,25.94
2023-05-17T17:39:22.447Z,25.84
2023-05-17T17:41:49.168Z,25.85
2023-05-17T17:44:15.826Z,25.82
2023-05-17T17:46:42.851Z,25.84
2023-05-17T17:49:09.638Z,25.84
2023-05-17T17:51:36.354Z,25.79
2023-05-17T17:54:05.415Z,25.78
2023-05-17T17:56:32.831Z,25.75
2023-05-17T17:58:59.894Z,25.67
2023-05-17T18:01:27.226Z,25.70
2023-05-17T18:03:56.034Z,25.66
2023-05-17T18:06:32.272Z,25.59
2023-05-17T18:09:02.635Z,25.63
2023-05-17T18:11:30.475Z,25.63
2023-05-17T18:14:00.639Z,25.68
2023-05-17T18:16:31.777Z,25.67
2023-05-17T18:18:59.167Z,25.66
2023-05-17T18:21:26.575Z,25.71
2023-05-17T18:23:53.807Z,25.72
2023-05-17T18:26:21.621Z,25.73
2023-05-17T18:28:54.820Z,25.75
2023-05-17T18:31:22.548Z,25.76
2023-05-17T18:33:49.470Z,25.73
2023-05-17T18:36:16.152Z,25.83
2023-05-17T18:38:42.806Z,25.84
2023-05-17T18:41:09.543Z,25.80
2023-05-17T18:43:36.205Z,25.79
2023-05-17T18:46:02.848Z,25.74
2023-05-17T18:48:29.590Z,25.82
2023-05-17T18:50:57.476Z,25.80
2023-05-17T18:53:24.467Z,25.82
2023-05-17T18:55:51.161Z,25.81
2023-05-17T18:58:17.860Z,25.83
2023-05-17T19:00:48.058Z,25.81
2023-05-17T19:03:15.314Z,25.79
2023-05-17T19:05:42.071Z,25.82
2023-05-17T19:08:08.774Z,25.80
2023-05-17T19:10:35.561Z,25.80
2023-05-17T19:13:02.245Z,25.78
2023-05-17T19:15:28.897Z,25.78
2023-05-17T19:17:55.846Z,25.80
2023-05-17T19:20:22.694Z,25.74
2023-05-17T19:22:49.451Z,25.80
2023-05-17T19:25:16.831Z,25.77
2023-05-17T19:27:44.443Z,25.67
2023-05-17T19:30:11.279Z,25.77
2023-05-17T19:32:38.044Z,25.78
2023-05-17T19:35:05.165Z,25.77
2023-05-17T19:37:31.854Z,25.68
2023-05-17T19:39:59.115Z,25.70
2023-05-17T19:42:25.876Z,25.77
2023-05-17T19:44:52.719Z,25.74
2023-05-17T19:47:19.554Z,25.71
2023-05-17T19:49:46.254Z,25.73
2023-05-17T19:52:13.056Z,25.72
2023-05-17T19:54:40.060Z,25.72
2023-05-17T19:57:06.912Z,25.76
2023-05-17T19:59:34.099Z,25.65
2023-05-17T20:02:01.055Z,25.58
2023-05-17T20:04:28.036Z,25.68
2023-05-17T20:06:54.882Z,25.70
2023-05-17T20:09:21.532Z,25.68
2023-05-17T20:11:48.241Z,25.61
2023-05-17T20:14:16.320Z,25.68
2023-05-17T20:16:43.212Z,25.59
2023-05-17T20:19:10.012Z,25.65
2023-05-17T20:21:36.759Z,25.63
2023-05-17T20:24:06.720Z,25.71
2023-05-17T20:26:36.762Z,25.65
2023-05-17T20:29:07.701Z,25.63
2023-05-17T20:31:38.644Z,25.66
2023-05-17T20:34:09.059Z,25.66
2023-05-17T20:36:35.789Z,25.57
2023-05-17T20:39:03.474Z,25.56
2023-05-17T20:41:30.258Z,25.48
2023-05-17T20:43:56.969Z,25.57
2023-05-17T20:46:23.777Z,25.54
2023-05-17T20:48:50.662Z,25.51
2023-05-17T20:51:18.160Z,25.48
2023-05-17T20:53:46.326Z,25.51
2023-05-17T20:56:14.178Z,25.54
2023-05-17T20:58:41.317Z,25.55
2023-05-17T21:01:08.068Z,25.49
2023-05-17T21:03:35.044Z,25.52
2023-05-17T21:06:02.113Z,25.52
2023-05-17T21:08:28.870Z,25.49
2023-05-17T21:10:55.859Z,25.48
2023-05-17T21:13:23.943Z,25.50
2023-05-17T21:15:50.745Z,25.46
2023-05-17T21:18:20.154Z,25.45
2023-05-17T21:20:47.057Z,25.47
2023-05-17T21:23:13.706Z,25.42
2023-05-17T21:25:40.389Z,25.36
2023-05-17T21:28:08.429Z,25.42
2023-05-17T21:30:35.408Z,25.43
2023-05-17T21:33:02.314Z,25.44
2023-05-17T21:35:29.094Z,25.44
2023-05-17T21:37:55.745Z,25.47
2023-05-17T21:40:25.463Z,25.42
2023-05-17T21:42:52.609Z,25.43
2023-05-17T21:45:19.254Z,25.41
2023-05-17T21:47:46.047Z,25.43
2023-05-17T21:50:12.734Z,25.39
2023-05-17T21:52:39.485Z,25.44
2023-05-17T21:55:07.199Z,25.39
2023-05-17T21:57:36.179Z,25.44
2023-05-17T22:00:04.535Z,25.47
2023-05-17T22:02:34.771Z,25.41
2023-05-17T22:05:01.721Z,25.41
2023-05-17T22:07:28.404Z,25.43
2023-05-17T22:09:55.211Z,25.42
2023-05-17T22:12:25.502Z,25.39
2023-05-17T22:14:58.534Z,25.39
2023-05-17T22:17:42.623Z,25.44
2023-05-17T22:20:14.260Z,25.42
2023-05-17T22:22:41.015Z,25.41
2023-05-17T22:25:08.413Z,25.29
2023-05-17T22:27:35.023Z,25.39
2023-05-17T22:30:01.684Z,25.35
2023-05-17T22:32:28.447Z,25.37
2023-05-17T22:34:56.213Z,25.31
2023-05-17T22:37:23.573Z,25.34
2023-05-17T22:39:50.435Z,25.36
2023-05-17T22:42:17.183Z,25.37
2023-05-17T22:44:43.833Z,25.38
2023-05-17T22:47:14.737Z,25.41
2023-05-17T22:49:41.937Z,25.40
2023-05-17T22:52:09.046Z,25.27
2023-05-17T22:54:36.518Z,25.32
2023-05-17T22:57:03.613Z,25.36
2023-05-17T22:59:30.469Z,25.36
2023-05-17T23:01:57.202Z,25.36
2023-05-17T23:04:26.006Z,25.31
2023-05-17T23:07:01.914Z,25.30
2023-05-17T23:09:29.999Z,25.28
2023-05-17T23:11:57.238Z,25.27
2023-05-17T23:14:24.157Z,25.34
2023-05-17T23:16:50.819Z,25.26
2023-05-17T23:19:18.122Z,25.34
2023-05-17T23:21:46.272Z,25.34
2023-05-17T23:24:14.070Z,25.35
2023-05-17T23:26:41.269Z,25.32
2023-05-17T23:29:10.590Z,25.32
2023-05-17T23:31:37.749Z,25.32
2023-05-17T23:34:06.734Z,25.28
2023-05-17T23:36:33.393Z,25.28
2023-05-17T23:39:00.003Z,25.25
2023-05-17T23:41:27.045Z,25.26
2023-05-17T23:43:53.663Z,25.26
2023-05-17T23:46:21.900Z,25.23
2023-05-17T23:48:51.443Z,25.23
2023-05-17T23:51:19.281Z,25.23
2023-05-17T23:53:46.007Z,25.27
2023-05-17T23:56:12.672Z,25.23
2023-05-17T23:58:39.316Z,25.20
